createdAt,value
2019-05-14T00:00:52.189Z,31.20
2019-05-14T00:01:51.402Z,30.10
2019-05-14T00:02:52.042Z,30.10
2019-05-14T00:03:51.611Z,30.50
2019-05-14T00:04:51.340Z,30.50
2019-05-14T00:05:51.769Z,29.10
2019-05-14T00:06:51.937Z,29.60
2019-05-14T00:07:52.118Z,29.70
2019-05-14T00:08:52.235Z,30.10
2019-05-14T00:09:51.920Z,32.10
2019-05-14T00:10:52.092Z,31.60
2019-05-14T00:11:51.297Z,35.60
2019-05-14T00:12:51.299Z,38.30
2019-05-14T00:13:52.007Z,38.60
2019-05-14T00:14:51.616Z,39.00
2019-05-14T00:15:52.157Z,39.00
2019-05-14T00:16:51.378Z,39.60
2019-05-14T00:17:52.230Z,40.10
2019-05-14T00:18:51.190Z,38.30
2019-05-14T00:20:05.562Z,40.60
2019-05-14T00:20:51.229Z,39.80
2019-05-14T00:21:51.429Z,39.90
2019-05-14T00:22:52.220Z,43.60
2019-05-14T00:23:51.455Z,42.70
2019-05-14T00:24:52.038Z,42.00
2019-05-14T00:25:52.300Z,42.10
2019-05-14T00:26:51.727Z,41.80
2019-05-14T00:27:51.858Z,42.30
2019-05-14T00:28:51.199Z,42.60
2019-05-14T00:29:51.839Z,41.90
2019-05-14T00:30:52.462Z,40.50
2019-05-14T00:31:51.654Z,40.10
2019-05-14T00:32:52.034Z,41.70
2019-05-14T00:33:51.327Z,41.40
2019-05-14T00:34:51.546Z,40.60
2019-05-14T00:35:51.470Z,41.60
2019-05-14T00:36:52.510Z,41.70
2019-05-14T00:37:52.118Z,39.90
2019-05-14T00:38:51.288Z,43.00
2019-05-14T00:39:52.115Z,41.70
2019-05-14T00:40:51.344Z,42.30
2019-05-14T00:41:51.230Z,42.90
2019-05-14T00:42:53.115Z,44.40
2019-05-14T00:43:51.349Z,44.20
2019-05-14T00:44:55.342Z,43.80
2019-05-14T00:45:51.137Z,44.20
2019-05-14T00:46:51.673Z,45.20
2019-05-14T00:47:52.475Z,46.10
2019-05-14T00:48:51.435Z,47.10
2019-05-14T00:49:51.812Z,47.80
2019-05-14T00:50:51.642Z,46.40
2019-05-14T00:51:51.904Z,46.70
2019-05-14T00:52:51.675Z,47.40
2019-05-14T00:53:51.610Z,47.90
2019-05-14T00:54:52.188Z,48.40
2019-05-14T00:55:51.703Z,47.60
2019-05-14T00:56:52.150Z,47.80
2019-05-14T00:57:52.222Z,48.50
2019-05-14T00:58:52.200Z,49.30
2019-05-14T00:59:52.150Z,49.60
2019-05-14T01:00:52.431Z,46.60
2019-05-14T01:01:51.641Z,48.50
2019-05-14T01:02:51.827Z,47.90
2019-05-14T01:03:52.160Z,47.30
2019-05-14T01:04:51.606Z,45.70
2019-05-14T01:05:52.235Z,44.70
2019-05-14T01:06:51.139Z,45.30
2019-05-14T01:07:51.418Z,46.70
2019-05-14T01:08:51.867Z,46.40
2019-05-14T01:09:52.368Z,48.00
2019-05-14T01:10:51.262Z,50.20
2019-05-14T01:11:51.243Z,50.30
2019-05-14T01:12:52.039Z,51.10
2019-05-14T01:13:52.253Z,49.60
2019-05-14T01:14:52.832Z,49.30
2019-05-14T01:15:52.151Z,48.90
2019-05-14T01:16:51.373Z,49.40
2019-05-14T01:17:51.609Z,53.20
2019-05-14T01:18:51.369Z,50.60
2019-05-14T01:19:51.312Z,48.70
2019-05-14T01:20:51.864Z,46.40
2019-05-14T01:21:51.110Z,47.40
2019-05-14T01:22:51.669Z,47.70
2019-05-14T01:23:51.381Z,46.10
2019-05-14T01:24:52.267Z,47.80
2019-05-14T01:25:51.641Z,49.30
2019-05-14T01:26:52.112Z,44.80
2019-05-14T01:27:51.821Z,45.70
2019-05-14T01:28:51.389Z,45.70
2019-05-14T01:29:51.436Z,45.50
2019-05-14T01:30:51.869Z,44.50
2019-05-14T01:31:52.018Z,44.70
2019-05-14T01:32:51.189Z,45.40
2019-05-14T01:33:51.544Z,42.90
2019-05-14T01:34:52.254Z,44.30
2019-05-14T01:35:51.431Z,46.60
2019-05-14T01:36:52.797Z,43.90
2019-05-14T01:37:52.241Z,46.50
2019-05-14T01:38:51.256Z,46.30
2019-05-14T01:39:52.049Z,43.40
2019-05-14T01:40:52.183Z,45.00
2019-05-14T01:41:51.673Z,42.20
2019-05-14T01:42:52.295Z,41.90
2019-05-14T01:43:51.349Z,42.10
2019-05-14T01:44:51.992Z,39.40
2019-05-14T01:45:52.186Z,41.70
2019-05-14T01:46:51.233Z,40.40
2019-05-14T01:47:52.086Z,38.00
2019-05-14T01:48:52.046Z,40.80
2019-05-14T01:49:51.557Z,41.50
2019-05-14T01:50:52.104Z,40.30
2019-05-14T01:51:51.150Z,39.10
2019-05-14T01:52:51.854Z,39.30
2019-05-14T01:53:52.016Z,40.70
2019-05-14T01:54:51.497Z,39.10
2019-05-14T01:55:52.014Z,39.50
2019-05-14T01:56:51.525Z,38.80
2019-05-14T01:57:51.753Z,41.70
2019-05-14T01:58:52.052Z,39.60
2019-05-14T01:59:51.678Z,41.70
2019-05-14T02:00:52.102Z,39.40
2019-05-14T02:01:51.760Z,40.40
2019-05-14T02:02:52.257Z,40.90
2019-05-14T02:03:51.812Z,41.00
2019-05-14T02:04:51.308Z,41.80
2019-05-14T02:05:51.905Z,44.60
2019-05-14T02:06:51.480Z,47.50
2019-05-14T02:07:52.405Z,50.30
2019-05-14T02:08:51.526Z,53.20
2019-05-14T02:09:51.816Z,53.50
2019-05-14T02:10:52.444Z,50.40
2019-05-14T02:11:51.803Z,52.90
2019-05-14T02:12:51.539Z,55.60
2019-05-14T02:13:51.723Z,50.40
2019-05-14T02:14:51.208Z,56.70
2019-05-14T02:15:51.818Z,55.30
2019-05-14T02:16:51.228Z,56.20
2019-05-14T02:17:51.729Z,52.90
2019-05-14T02:18:52.056Z,52.70
2019-05-14T02:19:51.486Z,51.80
2019-05-14T02:20:51.972Z,55.30
2019-05-14T02:21:51.426Z,54.50
2019-05-14T02:22:52.258Z,50.70
2019-05-14T02:23:51.411Z,52.00
2019-05-14T02:24:51.747Z,52.50
2019-05-14T02:25:51.690Z,53.30
2019-05-14T02:26:51.488Z,53.50
2019-05-14T02:27:51.767Z,51.20
2019-05-14T02:28:51.422Z,53.50
2019-05-14T02:29:51.644Z,55.80
2019-05-14T02:30:57.539Z,55.80
2019-05-14T02:31:50.469Z,55.10
2019-05-14T02:32:50.016Z,59.50
2019-05-14T02:33:50.617Z,57.40
2019-05-14T02:34:50.227Z,54.60
2019-05-14T02:35:49.891Z,57.60
2019-05-14T02:36:49.995Z,54.30
2019-05-14T02:37:50.623Z,55.90
2019-05-14T02:38:49.875Z,57.40
2019-05-14T02:39:50.397Z,56.30
2019-05-14T02:40:49.837Z,59.20
2019-05-14T02:41:50.059Z,59.40
2019-05-14T02:42:50.019Z,64.90
2019-05-14T02:43:50.458Z,59.30
2019-05-14T02:44:49.843Z,63.80
2019-05-14T02:46:04.810Z,62.50
2019-05-14T02:46:50.557Z,61.20
2019-05-14T02:47:50.473Z,62.80
2019-05-14T02:48:49.791Z,63.20
2019-05-14T02:49:50.343Z,64.00
2019-05-14T02:50:49.916Z,61.40
2019-05-14T02:51:50.584Z,59.50
2019-05-14T02:52:49.936Z,63.70
2019-05-14T02:53:50.024Z,65.00
2019-05-14T02:54:49.853Z,58.90
2019-05-14T02:55:50.030Z,58.50
2019-05-14T02:56:49.748Z,59.10
2019-05-14T02:57:50.068Z,56.60
2019-05-14T02:58:50.030Z,55.20
2019-05-14T02:59:50.471Z,56.90
2019-05-14T03:00:49.737Z,53.40
2019-05-14T03:01:50.262Z,57.20
2019-05-14T03:02:49.774Z,58.80
2019-05-14T03:03:49.735Z,58.00
2019-05-14T03:04:50.006Z,59.40
2019-05-14T03:05:49.846Z,59.20
2019-05-14T03:06:50.039Z,54.70
2019-05-14T03:07:50.187Z,53.20
2019-05-14T03:08:49.781Z,54.10
2019-05-14T03:09:50.306Z,51.60
2019-05-14T03:10:50.154Z,50.90
2019-05-14T03:11:49.628Z,50.90
2019-05-14T03:12:50.330Z,49.30
2019-05-14T03:13:49.753Z,51.20
2019-05-14T03:14:50.128Z,53.60
2019-05-14T03:15:49.966Z,48.70
2019-05-14T03:16:49.854Z,47.10
2019-05-14T03:17:49.678Z,52.60
2019-05-14T03:18:50.244Z,46.90
2019-05-14T03:19:49.798Z,50.60
2019-05-14T03:20:50.463Z,48.50
2019-05-14T03:21:50.395Z,46.60
2019-05-14T03:23:02.614Z,48.00
2019-05-14T03:23:49.835Z,47.80
2019-05-14T03:24:50.265Z,40.80
2019-05-14T03:25:49.643Z,44.80
2019-05-14T03:26:50.207Z,46.70
2019-05-14T03:27:49.842Z,44.70
2019-05-14T03:28:49.949Z,43.60
2019-05-14T03:29:50.229Z,45.20
2019-05-14T03:30:52.244Z,43.40
2019-05-14T03:31:52.555Z,43.10
2019-05-14T03:32:52.737Z,44.80
2019-05-14T03:33:52.620Z,46.90
2019-05-14T03:34:52.933Z,44.60
2019-05-14T03:35:57.327Z,45.70
2019-05-14T03:36:52.945Z,44.60
2019-05-14T03:37:49.871Z,45.80
2019-05-14T03:38:50.190Z,45.50
2019-05-14T03:39:49.547Z,44.70
2019-05-14T03:40:49.662Z,45.90
2019-05-14T03:41:49.856Z,44.70
2019-05-14T03:42:49.389Z,46.20
2019-05-14T03:43:49.652Z,45.60
2019-05-14T03:44:49.417Z,45.50
2019-05-14T03:45:49.776Z,51.30
2019-05-14T03:46:55.259Z,51.80
2019-05-14T03:47:50.546Z,53.90
2019-05-14T03:48:49.472Z,50.70
2019-05-14T03:49:50.063Z,49.40
2019-05-14T03:50:49.718Z,54.30
2019-05-14T03:51:49.931Z,52.50
2019-05-14T03:52:49.809Z,54.80
2019-05-14T03:54:01.173Z,51.50
2019-05-14T03:54:49.896Z,53.40
2019-05-14T03:55:50.470Z,57.10
2019-05-14T03:56:49.847Z,56.20
2019-05-14T03:57:50.028Z,56.20
2019-05-14T03:58:49.610Z,53.60
2019-05-14T03:59:49.936Z,54.40
2019-05-14T04:00:50.290Z,57.20
2019-05-14T04:01:51.032Z,60.40
2019-05-14T04:02:49.310Z,62.50
2019-05-14T04:03:50.311Z,56.30
2019-05-14T04:04:50.274Z,56.40
2019-05-14T04:05:49.895Z,56.50
2019-05-14T04:06:49.873Z,60.00
2019-05-14T04:07:50.248Z,56.70
2019-05-14T04:08:49.845Z,56.90
2019-05-14T04:09:49.540Z,57.20
2019-05-14T04:10:53.701Z,54.60
2019-05-14T04:11:50.157Z,58.90
2019-05-14T04:12:49.499Z,52.50
2019-05-14T04:13:49.833Z,50.40
2019-05-14T04:14:50.215Z,56.30
2019-05-14T04:15:49.929Z,53.40
2019-05-14T04:17:01.279Z,54.40
2019-05-14T04:17:50.273Z,52.00
2019-05-14T04:18:50.464Z,51.70
2019-05-14T04:19:49.765Z,53.20
2019-05-14T04:20:50.172Z,49.10
2019-05-14T04:21:49.216Z,49.40
2019-05-14T04:22:50.004Z,49.50
2019-05-14T04:23:50.987Z,50.60
2019-05-14T04:24:49.603Z,49.30
2019-05-14T04:25:49.875Z,47.70
2019-05-14T04:26:58.353Z,50.00
2019-05-14T04:27:49.555Z,49.50
2019-05-14T04:28:49.812Z,46.80
2019-05-14T04:29:49.841Z,44.90
2019-05-14T04:30:49.405Z,45.70
2019-05-14T04:31:50.341Z,45.80
2019-05-14T04:32:50.598Z,43.30
2019-05-14T04:33:50.031Z,45.70
2019-05-14T04:34:49.893Z,44.60
2019-05-14T04:35:49.279Z,44.30
2019-05-14T04:36:50.335Z,45.10
2019-05-14T04:37:49.673Z,41.60
2019-05-14T04:38:54.208Z,40.90
2019-05-14T04:39:50.416Z,36.90
2019-05-14T04:40:49.551Z,38.10
2019-05-14T04:41:49.771Z,36.60
2019-05-14T04:42:50.303Z,37.80
2019-05-14T04:43:50.056Z,35.20
2019-05-14T04:44:50.443Z,34.80
2019-05-14T04:45:49.637Z,34.30
2019-05-14T04:46:49.555Z,34.80
2019-05-14T04:47:49.763Z,34.70
2019-05-14T04:48:50.780Z,37.70
2019-05-14T04:49:50.507Z,35.70
2019-05-14T04:50:49.679Z,34.60
2019-05-14T04:51:50.343Z,33.90
2019-05-14T04:52:49.527Z,35.60
2019-05-14T04:53:49.812Z,34.80
2019-05-14T04:54:49.915Z,36.60
2019-05-14T04:55:49.604Z,36.10
2019-05-14T04:56:50.753Z,35.00
2019-05-14T04:57:49.988Z,34.80
2019-05-14T04:58:49.709Z,33.30
2019-05-14T04:59:49.391Z,34.10
2019-05-14T05:00:49.992Z,32.40
2019-05-14T05:01:49.556Z,32.40
2019-05-14T05:02:49.696Z,33.60
2019-05-14T05:03:50.301Z,34.00
2019-05-14T05:04:50.692Z,34.50
2019-05-14T05:05:50.009Z,33.90
2019-05-14T05:06:49.913Z,34.70
2019-05-14T05:07:49.357Z,34.50
2019-05-14T05:08:49.746Z,34.60
2019-05-14T05:09:50.206Z,35.50
2019-05-14T05:10:49.452Z,33.30
2019-05-14T05:11:49.822Z,35.50
2019-05-14T05:12:49.354Z,33.30
2019-05-14T05:13:48.895Z,34.10
2019-05-14T05:14:49.276Z,34.70
2019-05-14T05:15:48.842Z,35.40
2019-05-14T05:16:49.094Z,34.70
2019-05-14T05:17:52.596Z,34.40
2019-05-14T05:18:49.254Z,33.50
2019-05-14T05:19:51.619Z,34.20
2019-05-14T05:20:50.642Z,35.30
2019-05-14T05:21:48.695Z,33.50
2019-05-14T05:22:48.745Z,34.70
2019-05-14T05:23:49.236Z,34.20
2019-05-14T05:24:48.673Z,34.10
2019-05-14T05:25:49.057Z,33.00
2019-05-14T05:26:48.722Z,35.60
2019-05-14T05:27:48.802Z,35.70
2019-05-14T05:29:02.322Z,34.20
2019-05-14T05:29:48.733Z,36.20
2019-05-14T05:30:49.075Z,35.50
2019-05-14T05:31:48.897Z,35.70
2019-05-14T05:32:49.484Z,36.60
2019-05-14T05:33:49.103Z,35.60
2019-05-14T05:34:48.553Z,38.50
2019-05-14T05:35:48.731Z,36.30
2019-05-14T05:36:48.668Z,37.90
2019-05-14T05:37:49.002Z,37.30
2019-05-14T05:38:49.287Z,36.60
2019-05-14T05:39:49.078Z,36.10
2019-05-14T05:40:48.738Z,37.40
2019-05-14T05:41:49.250Z,38.60
2019-05-14T05:42:48.948Z,39.10
2019-05-14T05:43:48.672Z,38.70
2019-05-14T05:44:48.564Z,40.70
2019-05-14T05:45:48.646Z,39.60
2019-05-14T05:46:49.407Z,38.40
2019-05-14T05:47:57.464Z,40.30
2019-05-14T05:48:48.460Z,39.90
2019-05-14T05:49:48.789Z,40.50
2019-05-14T05:50:48.613Z,41.10
2019-05-14T05:51:48.601Z,42.50
2019-05-14T05:52:49.789Z,40.50
2019-05-14T05:53:48.563Z,39.90
2019-05-14T05:54:49.038Z,39.80
2019-05-14T05:55:48.581Z,38.90
2019-05-14T05:56:48.411Z,41.60
2019-05-14T05:57:49.231Z,40.80
2019-05-14T05:58:48.893Z,41.40
2019-05-14T05:59:48.652Z,39.70
2019-05-14T06:00:49.707Z,37.80
2019-05-14T06:01:50.285Z,37.80
2019-05-14T06:02:48.946Z,40.50
2019-05-14T06:03:49.174Z,40.00
2019-05-14T06:04:48.352Z,38.10
2019-05-14T06:05:49.225Z,39.80
2019-05-14T06:06:48.371Z,40.10
2019-05-14T06:07:48.358Z,36.70
2019-05-14T06:08:49.101Z,38.10
2019-05-14T06:09:48.499Z,37.30
2019-05-14T06:10:49.023Z,37.80
2019-05-14T06:11:48.735Z,39.00
2019-05-14T06:12:49.139Z,37.90
2019-05-14T06:13:48.648Z,36.90
2019-05-14T06:14:48.795Z,36.50
2019-05-14T06:15:51.507Z,34.90
2019-05-14T06:16:48.889Z,33.50
2019-05-14T06:17:49.225Z,34.10
2019-05-14T06:18:48.598Z,36.00
2019-05-14T06:19:48.615Z,34.00
2019-05-14T06:20:49.416Z,35.50
2019-05-14T06:21:48.986Z,34.10
2019-05-14T06:22:48.964Z,36.10
2019-05-14T06:23:49.017Z,35.70
2019-05-14T06:24:48.531Z,34.50
2019-05-14T06:25:49.250Z,34.40
2019-05-14T06:26:48.956Z,35.40
2019-05-14T06:27:48.578Z,37.20
2019-05-14T06:28:48.695Z,36.50
2019-05-14T06:29:48.993Z,37.30
2019-05-14T06:30:48.521Z,38.40
2019-05-14T06:31:49.595Z,38.30
2019-05-14T06:32:48.705Z,37.60
2019-05-14T06:33:48.602Z,37.90
2019-05-14T06:34:48.868Z,37.60
2019-05-14T06:35:48.576Z,37.00
2019-05-14T06:36:48.669Z,36.80
2019-05-14T06:37:48.994Z,38.50
2019-05-14T06:38:49.335Z,38.80
2019-05-14T06:39:48.495Z,39.10
2019-05-14T06:40:48.915Z,37.40
2019-05-14T06:41:48.978Z,37.40
2019-05-14T06:42:48.555Z,38.10
2019-05-14T06:43:48.625Z,38.60
2019-05-14T06:44:49.250Z,38.20
2019-05-14T06:45:49.512Z,36.80
2019-05-14T06:46:49.030Z,38.00
2019-05-14T06:47:48.753Z,36.70
2019-05-14T06:48:48.615Z,38.00
2019-05-14T06:49:48.761Z,38.30
2019-05-14T06:50:50.230Z,38.60
2019-05-14T06:51:48.971Z,38.80
2019-05-14T06:52:49.239Z,36.80
2019-05-14T06:53:49.798Z,36.40
2019-05-14T06:54:49.696Z,39.00
2019-05-14T06:55:48.366Z,37.40
2019-05-14T06:56:48.784Z,36.40
2019-05-14T06:57:48.118Z,37.30
2019-05-14T06:58:49.088Z,36.60
2019-05-14T06:59:48.357Z,38.80
2019-05-14T07:00:49.476Z,39.80
2019-05-14T07:01:48.955Z,39.60
2019-05-14T07:02:49.169Z,40.20
2019-05-14T07:03:49.085Z,43.30
2019-05-14T07:04:48.401Z,40.80
2019-05-14T07:05:49.277Z,39.40
2019-05-14T07:06:48.546Z,37.70
2019-05-14T07:07:49.367Z,37.80
2019-05-14T07:08:48.645Z,36.10
2019-05-14T07:09:48.819Z,37.30
2019-05-14T07:10:48.600Z,35.90
2019-05-14T07:11:49.192Z,36.80
2019-05-14T07:12:49.943Z,37.30
2019-05-14T07:13:49.184Z,39.20
2019-05-14T07:14:48.228Z,38.70
2019-05-14T07:15:48.917Z,38.50
2019-05-14T07:16:48.473Z,37.40
2019-05-14T07:17:48.783Z,38.20
2019-05-14T07:18:53.016Z,39.10
2019-05-14T07:19:49.003Z,39.30
2019-05-14T07:20:48.524Z,36.40
2019-05-14T07:21:49.180Z,37.90
2019-05-14T07:22:48.299Z,38.40
2019-05-14T07:23:49.026Z,40.10
2019-05-14T07:24:49.613Z,38.50
2019-05-14T07:25:48.311Z,38.40
2019-05-14T07:26:49.392Z,38.20
2019-05-14T07:27:48.966Z,38.30
2019-05-14T07:28:48.747Z,42.30
2019-05-14T07:29:49.255Z,41.40
2019-05-14T07:30:48.621Z,40.70
2019-05-14T07:31:48.888Z,40.40
2019-05-14T07:32:48.456Z,42.40
2019-05-14T07:33:49.383Z,40.80
2019-05-14T07:34:48.206Z,41.10
2019-05-14T07:35:48.778Z,39.40
2019-05-14T07:36:49.060Z,41.10
2019-05-14T07:37:48.853Z,41.40
2019-05-14T07:38:48.956Z,42.70
2019-05-14T07:39:48.708Z,42.00
2019-05-14T07:40:49.407Z,41.10
2019-05-14T07:41:48.307Z,39.80
2019-05-14T07:42:48.732Z,39.30
2019-05-14T07:43:48.345Z,43.70
2019-05-14T07:44:48.477Z,41.90
2019-05-14T07:45:49.128Z,40.70
2019-05-14T07:46:48.302Z,41.90
2019-05-14T07:47:49.303Z,40.70
2019-05-14T07:49:03.870Z,40.00
2019-05-14T07:49:49.072Z,41.40
2019-05-14T07:50:49.175Z,40.80
2019-05-14T07:51:48.208Z,39.20
2019-05-14T07:52:49.765Z,38.20
2019-05-14T07:53:48.792Z,39.60
2019-05-14T07:54:48.151Z,40.90
2019-05-14T07:55:49.235Z,42.60
2019-05-14T07:56:50.906Z,43.70
2019-05-14T07:57:48.062Z,44.50
2019-05-14T07:58:49.108Z,41.70
2019-05-14T07:59:48.402Z,42.00
2019-05-14T08:00:49.187Z,41.10
2019-05-14T08:01:49.097Z,41.40
2019-05-14T08:02:49.111Z,42.30
2019-05-14T08:03:48.861Z,40.20
2019-05-14T08:04:48.727Z,39.10
2019-05-14T08:05:48.277Z,40.20
2019-05-14T08:06:48.725Z,41.90
2019-05-14T08:07:48.107Z,39.60
2019-05-14T08:08:49.245Z,38.60
2019-05-14T08:09:47.990Z,38.30
2019-05-14T08:10:48.648Z,38.10
2019-05-14T08:11:48.061Z,37.30
2019-05-14T08:12:48.474Z,36.50
2019-05-14T08:13:49.339Z,37.20
2019-05-14T08:15:09.323Z,37.70
2019-05-14T08:15:49.053Z,39.80
2019-05-14T08:16:48.909Z,40.50
2019-05-14T08:17:48.209Z,38.90
2019-05-14T08:18:48.799Z,36.80
2019-05-14T08:19:49.142Z,36.80
2019-05-14T08:20:48.604Z,40.80
2019-05-14T08:21:48.164Z,38.40
2019-05-14T08:22:49.054Z,38.10
2019-05-14T08:23:48.083Z,37.70
2019-05-14T08:24:48.961Z,37.00
2019-05-14T08:25:48.111Z,35.60
2019-05-14T08:26:48.646Z,37.00
2019-05-14T08:27:48.187Z,34.60
2019-05-14T08:28:48.885Z,37.20
2019-05-14T08:29:48.657Z,35.60
2019-05-14T08:30:48.881Z,34.40
2019-05-14T08:31:48.811Z,35.50
2019-05-14T08:32:48.974Z,34.30
2019-05-14T08:33:48.819Z,32.90
2019-05-14T08:34:48.027Z,32.50
2019-05-14T08:35:48.850Z,31.70
2019-05-14T08:36:48.379Z,29.80
2019-05-14T08:37:49.073Z,29.70
2019-05-14T08:38:49.682Z,29.30
2019-05-14T08:39:48.599Z,30.50
2019-05-14T08:40:48.856Z,28.80
2019-05-14T08:41:56.004Z,28.20
2019-05-14T08:42:48.948Z,26.80
2019-05-14T08:43:48.965Z,27.50
2019-05-14T08:44:50.949Z,27.90
2019-05-14T08:45:48.864Z,26.70
2019-05-14T08:46:48.649Z,26.70
2019-05-14T08:47:48.320Z,26.40
2019-05-14T08:48:49.269Z,26.90
2019-05-14T08:49:50.454Z,26.30
2019-05-14T08:50:48.185Z,25.60
2019-05-14T08:51:49.214Z,26.50
2019-05-14T08:52:48.296Z,26.40
2019-05-14T08:53:49.832Z,26.60
2019-05-14T08:54:49.047Z,25.30
2019-05-14T08:55:48.764Z,26.10
2019-05-14T08:56:48.860Z,25.00
2019-05-14T08:57:48.974Z,25.90
2019-05-14T08:58:49.172Z,26.90
2019-05-14T08:59:48.672Z,27.80
2019-05-14T09:00:48.237Z,27.30
2019-05-14T09:02:00.862Z,27.50
2019-05-14T09:02:48.526Z,28.80
2019-05-14T09:03:49.212Z,26.90
2019-05-14T09:04:52.598Z,27.70
2019-05-14T09:05:48.970Z,27.90
2019-05-14T09:06:48.935Z,28.90
2019-05-14T09:07:48.846Z,30.10
2019-05-14T09:08:49.249Z,29.00
2019-05-14T09:09:48.789Z,28.10
2019-05-14T09:10:49.450Z,28.70
2019-05-14T09:11:50.240Z,27.60
2019-05-14T09:12:48.908Z,28.50
2019-05-14T09:13:48.989Z,26.60
2019-05-14T09:14:48.385Z,26.90
2019-05-14T09:15:48.729Z,26.30
2019-05-14T09:16:50.543Z,24.80
2019-05-14T09:17:48.377Z,26.00
2019-05-14T09:18:48.872Z,25.20
2019-05-14T09:19:58.854Z,25.60
2019-05-14T09:20:48.739Z,25.60
2019-05-14T09:21:49.395Z,24.30
2019-05-14T09:22:48.844Z,26.40
2019-05-14T09:23:48.200Z,25.40
2019-05-14T09:24:48.878Z,25.30
2019-05-14T09:25:50.454Z,25.70
2019-05-14T09:26:48.334Z,24.40
2019-05-14T09:27:49.069Z,25.80
2019-05-14T09:28:48.267Z,24.10
2019-05-14T09:29:48.427Z,25.90
2019-05-14T09:30:48.558Z,26.30
2019-05-14T09:31:48.907Z,25.80
2019-05-14T09:32:48.965Z,25.90
2019-05-14T09:33:49.225Z,25.90
2019-05-14T09:34:48.704Z,25.50
2019-05-14T09:35:49.089Z,26.10
2019-05-14T09:36:48.878Z,26.10
2019-05-14T09:37:50.951Z,26.00
2019-05-14T09:38:48.935Z,25.60
2019-05-14T09:39:48.659Z,26.10
2019-05-14T09:40:48.798Z,26.20
2019-05-14T09:41:48.226Z,26.40
2019-05-14T09:42:49.706Z,24.70
2019-05-14T09:43:48.713Z,25.60
2019-05-14T09:44:48.850Z,25.70
2019-05-14T09:45:48.150Z,24.80
2019-05-14T09:46:46.554Z,25.70
2019-05-14T09:47:50.310Z,25.10
2019-05-14T09:48:48.414Z,25.30
2019-05-14T09:49:48.873Z,25.00
2019-05-14T09:50:48.752Z,23.00
2019-05-14T09:51:48.732Z,22.80
2019-05-14T09:52:49.183Z,23.40
2019-05-14T09:53:48.657Z,23.80
2019-05-14T09:54:46.522Z,24.70
2019-05-14T09:55:48.940Z,22.50
2019-05-14T09:56:48.404Z,22.30
2019-05-14T09:57:46.454Z,23.60
2019-05-14T09:58:46.451Z,23.50
2019-05-14T09:59:47.948Z,23.20
2019-05-14T10:00:48.576Z,23.90
2019-05-14T10:01:50.400Z,23.90
2019-05-14T10:02:49.294Z,21.80
2019-05-14T10:03:46.418Z,23.80
2019-05-14T10:04:48.745Z,22.50
2019-05-14T10:05:46.404Z,22.50
2019-05-14T10:06:48.457Z,23.00
2019-05-14T10:07:46.382Z,23.60
2019-05-14T10:08:48.401Z,22.50
2019-05-14T10:09:46.365Z,23.40
2019-05-14T10:10:48.650Z,23.10
2019-05-14T10:11:48.074Z,22.70
2019-05-14T10:12:53.985Z,23.90
2019-05-14T10:13:48.218Z,24.20
2019-05-14T10:14:48.545Z,22.10
2019-05-14T10:15:48.435Z,21.60
2019-05-14T10:16:48.870Z,21.70
2019-05-14T10:17:49.782Z,23.80
2019-05-14T10:18:48.508Z,23.40
2019-05-14T10:19:46.287Z,22.60
2019-05-14T10:20:49.091Z,22.40
2019-05-14T10:21:46.277Z,23.50
2019-05-14T10:22:48.182Z,23.70
2019-05-14T10:23:46.241Z,23.20
2019-05-14T10:24:46.243Z,23.60
2019-05-14T10:25:46.261Z,23.20
2019-05-14T10:26:48.266Z,22.60
2019-05-14T10:27:48.386Z,24.10
2019-05-14T10:28:48.242Z,22.80
2019-05-14T10:29:48.183Z,23.80
2019-05-14T10:30:48.934Z,23.10
2019-05-14T10:31:48.452Z,23.50
2019-05-14T10:32:49.016Z,24.00
2019-05-14T10:33:48.336Z,24.60
2019-05-14T10:34:48.339Z,23.10
2019-05-14T10:35:48.209Z,23.80
2019-05-14T10:36:46.135Z,25.20
2019-05-14T10:37:46.177Z,25.30
2019-05-14T10:38:46.118Z,24.70
2019-05-14T10:39:46.127Z,25.50
2019-05-14T10:40:46.095Z,25.50
2019-05-14T10:41:46.106Z,23.60
2019-05-14T10:42:49.192Z,24.10
2019-05-14T10:43:46.091Z,24.70
2019-05-14T10:44:46.071Z,24.20
2019-05-14T10:45:46.062Z,26.40
2019-05-14T10:46:46.050Z,25.20
2019-05-14T10:47:46.051Z,26.50
2019-05-14T10:48:46.026Z,25.60
2019-05-14T10:49:46.038Z,24.20
2019-05-14T10:50:57.212Z,24.70
2019-05-14T10:51:47.866Z,25.20
2019-05-14T10:52:48.581Z,24.90
2019-05-14T10:53:48.524Z,25.70
2019-05-14T10:54:55.331Z,22.50
2019-05-14T10:55:45.980Z,25.10
2019-05-14T10:56:45.969Z,23.80
2019-05-14T10:57:46.010Z,25.30
2019-05-14T10:58:45.967Z,25.00
2019-05-14T10:59:45.938Z,26.10
2019-05-14T11:00:45.954Z,27.50
2019-05-14T11:01:45.950Z,25.60
2019-05-14T11:02:45.927Z,26.70
2019-05-14T11:03:48.248Z,25.80
2019-05-14T11:04:48.202Z,26.50
2019-05-14T11:05:48.022Z,25.70
2019-05-14T11:06:45.926Z,26.00
2019-05-14T11:07:47.994Z,24.90
2019-05-14T11:08:45.871Z,26.20
2019-05-14T11:09:45.864Z,26.10
2019-05-14T11:10:45.866Z,25.00
2019-05-14T11:11:45.893Z,24.70
2019-05-14T11:12:45.852Z,25.80
2019-05-14T11:13:45.815Z,24.50
2019-05-14T11:14:45.830Z,25.50
2019-05-14T11:15:48.444Z,25.90
2019-05-14T11:16:45.812Z,25.80
2019-05-14T11:17:48.490Z,24.10
2019-05-14T11:18:45.795Z,25.60
2019-05-14T11:19:47.758Z,25.60
2019-05-14T11:20:51.049Z,25.20
2019-05-14T11:21:45.770Z,25.20
2019-05-14T11:22:45.758Z,24.30
2019-05-14T11:23:45.776Z,24.30
2019-05-14T11:24:45.766Z,24.40
2019-05-14T11:25:45.733Z,25.30
2019-05-14T11:26:48.533Z,22.80
2019-05-14T11:27:45.727Z,24.90
2019-05-14T11:28:45.746Z,24.40
2019-05-14T11:29:45.715Z,23.90
2019-05-14T11:30:45.713Z,21.70
2019-05-14T11:31:48.259Z,21.40
2019-05-14T11:32:45.691Z,22.00
2019-05-14T11:33:45.678Z,21.60
2019-05-14T11:34:45.672Z,22.00
2019-05-14T11:35:45.675Z,21.70
2019-05-14T11:36:45.644Z,21.60
2019-05-14T11:37:47.873Z,21.30
2019-05-14T11:38:45.639Z,21.00
2019-05-14T11:39:45.633Z,22.40
2019-05-14T11:40:45.643Z,21.20
2019-05-14T11:41:45.610Z,21.30
2019-05-14T11:42:45.619Z,21.20
2019-05-14T11:43:45.631Z,20.90
2019-05-14T11:44:45.594Z,21.00
2019-05-14T11:45:48.285Z,19.90
2019-05-14T11:46:52.116Z,21.80
2019-05-14T11:47:45.617Z,21.30
2019-05-14T11:48:48.689Z,22.30
2019-05-14T11:49:45.563Z,22.20
2019-05-14T11:50:45.549Z,22.10
2019-05-14T11:52:00.670Z,22.90
2019-05-14T11:52:45.547Z,21.90
2019-05-14T11:53:45.537Z,22.70
2019-05-14T11:54:45.581Z,21.50
2019-05-14T11:55:45.538Z,21.40
2019-05-14T11:56:45.495Z,20.90
2019-05-14T11:57:45.510Z,21.60
2019-05-14T11:58:45.493Z,22.30
2019-05-14T11:59:45.503Z,22.70
2019-05-14T12:00:45.484Z,21.90
2019-05-14T12:01:45.499Z,21.80
2019-05-14T12:02:45.491Z,21.10
2019-05-14T12:03:45.482Z,22.40
2019-05-14T12:04:45.497Z,20.70
2019-05-14T12:05:45.456Z,21.30
2019-05-14T12:06:45.430Z,21.80
2019-05-14T12:07:45.458Z,20.10
2019-05-14T12:08:45.445Z,19.70
2019-05-14T12:09:45.665Z,22.50
2019-05-14T12:10:45.415Z,20.00
2019-05-14T12:11:45.405Z,22.00
2019-05-14T12:12:45.454Z,21.70
2019-05-14T12:13:45.406Z,21.20
2019-05-14T12:14:45.365Z,21.40
2019-05-14T12:15:45.378Z,21.60
2019-05-14T12:16:45.382Z,21.20
2019-05-14T12:17:45.381Z,20.40
2019-05-14T12:18:45.338Z,20.70
2019-05-14T12:19:45.409Z,20.60
2019-05-14T12:20:45.381Z,20.10
2019-05-14T12:21:58.734Z,22.40
2019-05-14T12:22:45.335Z,20.70
2019-05-14T12:23:45.317Z,21.80
2019-05-14T12:24:45.363Z,22.60
2019-05-14T12:25:45.300Z,23.70
2019-05-14T12:26:45.323Z,22.10
2019-05-14T12:27:45.298Z,22.80
2019-05-14T12:28:45.302Z,22.10
2019-05-14T12:29:45.282Z,22.60
2019-05-14T12:30:45.301Z,22.50
2019-05-14T12:31:45.288Z,23.00
2019-05-14T12:32:45.304Z,23.10
2019-05-14T12:33:45.286Z,23.10
2019-05-14T12:34:45.313Z,22.70
2019-05-14T12:35:45.276Z,23.60
2019-05-14T12:36:45.251Z,21.20
2019-05-14T12:37:45.263Z,20.00
2019-05-14T12:38:45.246Z,19.50
2019-05-14T12:39:45.274Z,20.30
2019-05-14T12:40:45.231Z,20.80
2019-05-14T12:41:45.218Z,20.00
2019-05-14T12:42:45.213Z,20.10
2019-05-14T12:43:45.215Z,19.20
2019-05-14T12:44:45.212Z,19.90
2019-05-14T12:45:45.219Z,19.30
2019-05-14T12:46:45.200Z,17.80
2019-05-14T12:47:45.214Z,19.70
2019-05-14T12:48:45.208Z,19.00
2019-05-14T12:49:45.175Z,18.90
2019-05-14T12:50:45.193Z,15.60
2019-05-14T12:51:45.212Z,16.50
2019-05-14T12:52:45.377Z,17.00